sensor_id;sensor_type;location;lat;lon;timestamp;temperature;humidity
5881;DHT22;2966;52.598;10.928;2023-02-01T00:00:40;4.20;99.90
5881;DHT22;2966;52.598;10.928;2023-02-01T00:03:11;4.20;99.90
5881;DHT22;2966;52.598;10.928;2023-02-01T00:05:40;4.30;99.90
5881;DHT22;2966;52.598;10.928;2023-02-01T00:08:07;4.40;99.90
5881;DHT22;2966;52.598;10.928;2023-02-01T00:10:34;4.30;99.90
5881;DHT22;2966;52.598;10.928;2023-02-01T00:13:01;4.30;99.90
5881;DHT22;2966;52.598;10.928;2023-02-01T00:15:28;4.30;99.90
5881;DHT22;2966;52.598;10.928;2023-02-01T00:17:58;4.30;99.90
5881;DHT22;2966;52.598;10.928;2023-02-01T00:20:26;4.30;99.90
5881;DHT22;2966;52.598;10.928;2023-02-01T00:22:53;4.30;99.90
5881;DHT22;2966;52.598;10.928;2023-02-01T00:25:19;4.30;99.90
5881;DHT22;2966;52.598;10.928;2023-02-01T00:27:48;4.30;99.90
5881;DHT22;2966;52.598;10.928;2023-02-01T00:30:16;4.20;99.90
5881;DHT22;2966;52.598;10.928;2023-02-01T00:32:43;4.30;99.90
5881;DHT22;2966;52.598;10.928;2023-02-01T00:35:13;4.30;99.90
5881;DHT22;2966;52.598;10.928;2023-02-01T00:37:41;4.30;99.90
5881;DHT22;2966;52.598;10.928;2023-02-01T00:40:11;4.40;99.90
5881;DHT22;2966;52.598;10.928;2023-02-01T00:42:37;4.50;99.90
5881;DHT22;2966;52.598;10.928;2023-02-01T00:45:05;4.50;99.90
5881;DHT22;2966;52.598;10.928;2023-02-01T00:47:35;4.40;99.90
5881;DHT22;2966;52.598;10.928;2023-02-01T00:50:02;4.50;99.90
5881;DHT22;2966;52.598;10.928;2023-02-01T00:52:31;4.50;99.90
5881;DHT22;2966;52.598;10.928;2023-02-01T00:54:59;4.60;99.90
5881;DHT22;2966;52.598;10.928;2023-02-01T00:57:26;4.50;99.90
5881;DHT22;2966;52.598;10.928;2023-02-01T00:59:56;4.60;99.90
5881;DHT22;2966;52.598;10.928;2023-02-01T01:02:22;4.60;99.90
5881;DHT22;2966;52.598;10.928;2023-02-01T01:04:52;4.60;99.90
5881;DHT22;2966;52.598;10.928;2023-02-01T01:07:18;4.70;99.90
5881;DHT22;2966;52.598;10.928;2023-02-01T01:09:48;4.70;99.90
5881;DHT22;2966;52.598;10.928;2023-02-01T01:12:16;4.70;99.90
5881;DHT22;2966;52.598;10.928;2023-02-01T01:14:44;4.70;99.90
5881;DHT22;2966;52.598;10.928;2023-02-01T01:17:10;4.70;99.90
5881;DHT22;2966;52.598;10.928;2023-02-01T01:19:40;4.80;99.90
5881;DHT22;2966;52.598;10.928;2023-02-01T01:22:07;4.70;99.90
5881;DHT22;2966;52.598;10.928;2023-02-01T01:24:36;4.70;99.90
5881;DHT22;2966;52.598;10.928;2023-02-01T01:27:03;4.70;99.90
5881;DHT22;2966;52.598;10.928;2023-02-01T01:29:34;4.70;99.90
5881;DHT22;2966;52.598;10.928;2023-02-01T01:32:01;4.80;99.90
5881;DHT22;2966;52.598;10.928;2023-02-01T01:34:27;4.90;99.90
5881;DHT22;2966;52.598;10.928;2023-02-01T01:36:57;4.90;99.90
5881;DHT22;2966;52.598;10.928;2023-02-01T01:39:24;4.80;99.90
5881;DHT22;2966;52.598;10.928;2023-02-01T01:41:53;4.90;99.90
5881;DHT22;2966;52.598;10.928;2023-02-01T01:45:00;4.80;99.90
5881;DHT22;2966;52.598;10.928;2023-02-01T01:47:33;4.90;99.90
5881;DHT22;2966;52.598;10.928;2023-02-01T01:50:01;4.90;99.90
5881;DHT22;2966;52.598;10.928;2023-02-01T01:52:28;4.90;99.90
5881;DHT22;2966;52.598;10.928;2023-02-01T01:54:55;4.90;99.90
5881;DHT22;2966;52.598;10.928;2023-02-01T01:57:26;4.90;99.90
5881;DHT22;2966;52.598;10.928;2023-02-01T02:00:00;4.90;99.90
5881;DHT22;2966;52.598;10.928;2023-02-01T02:02:28;4.90;99.90
5881;DHT22;2966;52.598;10.928;2023-02-01T02:04:55;4.90;99.90
5881;DHT22;2966;52.598;10.928;2023-02-01T02:07:26;4.90;99.90
5881;DHT22;2966;52.598;10.928;2023-02-01T02:09:55;4.90;99.90
5881;DHT22;2966;52.598;10.928;2023-02-01T02:12:22;4.90;99.90
5881;DHT22;2966;52.598;10.928;2023-02-01T02:14:49;4.90;99.90
5881;DHT22;2966;52.598;10.928;2023-02-01T02:17:32;4.90;99.90
5881;DHT22;2966;52.598;10.928;2023-02-01T02:20:25;4.90;99.90
5881;DHT22;2966;52.598;10.928;2023-02-01T02:23:11;5.00;99.90
5881;DHT22;2966;52.598;10.928;2023-02-01T02:25:59;4.90;99.90
5881;DHT22;2966;52.598;10.928;2023-02-01T02:28:50;5.00;99.90
5881;DHT22;2966;52.598;10.928;2023-02-01T02:31:37;5.00;99.90
5881;DHT22;2966;52.598;10.928;2023-02-01T02:34:14;4.90;99.90
5881;DHT22;2966;52.598;10.928;2023-02-01T02:36:49;4.90;99.90
5881;DHT22;2966;52.598;10.928;2023-02-01T02:39:23;4.90;99.90
5881;DHT22;2966;52.598;10.928;2023-02-01T02:41:58;4.90;99.90
5881;DHT22;2966;52.598;10.928;2023-02-01T02:44:47;4.90;99.90
5881;DHT22;2966;52.598;10.928;2023-02-01T02:47:36;5.00;99.90
5881;DHT22;2966;52.598;10.928;2023-02-01T02:50:13;4.90;99.90
5881;DHT22;2966;52.598;10.928;2023-02-01T02:53:02;4.90;99.90
5881;DHT22;2966;52.598;10.928;2023-02-01T02:55:49;4.90;99.90
5881;DHT22;2966;52.598;10.928;2023-02-01T02:58:17;4.90;99.90
5881;DHT22;2966;52.598;10.928;2023-02-01T03:01:03;4.90;99.90
5881;DHT22;2966;52.598;10.928;2023-02-01T03:03:48;4.90;99.90
5881;DHT22;2966;52.598;10.928;2023-02-01T03:06:36;4.90;99.90
5881;DHT22;2966;52.598;10.928;2023-02-01T03:09:08;4.80;99.90
5881;DHT22;2966;52.598;10.928;2023-02-01T03:11:37;4.80;99.90
5881;DHT22;2966;52.598;10.928;2023-02-01T03:14:22;4.80;99.90
5881;DHT22;2966;52.598;10.928;2023-02-01T03:16:57;4.70;99.90
5881;DHT22;2966;52.598;10.928;2023-02-01T03:19:30;4.70;99.90
5881;DHT22;2966;52.598;10.928;2023-02-01T03:22:04;4.70;99.90
5881;DHT22;2966;52.598;10.928;2023-02-01T03:24:36;4.70;99.90
5881;DHT22;2966;52.598;10.928;2023-02-01T03:27:07;4.70;99.90
5881;DHT22;2966;52.598;10.928;2023-02-01T03:29:39;4.70;99.90
5881;DHT22;2966;52.598;10.928;2023-02-01T03:32:08;4.70;99.90
5881;DHT22;2966;52.598;10.928;2023-02-01T03:34:36;4.70;99.90
5881;DHT22;2966;52.598;10.928;2023-02-01T03:37:07;4.70;99.90
5881;DHT22;2966;52.598;10.928;2023-02-01T03:39:41;4.60;99.90
5881;DHT22;2966;52.598;10.928;2023-02-01T03:42:15;4.50;99.90
5881;DHT22;2966;52.598;10.928;2023-02-01T03:44:48;4.60;99.90
5881;DHT22;2966;52.598;10.928;2023-02-01T03:47:18;4.60;99.90
5881;DHT22;2966;52.598;10.928;2023-02-01T03:49:49;4.60;99.90
5881;DHT22;2966;52.598;10.928;2023-02-01T03:52:22;4.60;99.90
5881;DHT22;2966;52.598;10.928;2023-02-01T03:54:50;4.60;99.90
5881;DHT22;2966;52.598;10.928;2023-02-01T03:57:23;4.60;99.90
5881;DHT22;2966;52.598;10.928;2023-02-01T03:59:52;4.60;99.90
5881;DHT22;2966;52.598;10.928;2023-02-01T04:02:19;4.70;99.90
5881;DHT22;2966;52.598;10.928;2023-02-01T04:04:46;4.70;99.90
5881;DHT22;2966;52.598;10.928;2023-02-01T04:07:12;4.70;99.90
5881;DHT22;2966;52.598;10.928;2023-02-01T04:09:40;4.80;99.90
5881;DHT22;2966;52.598;10.928;2023-02-01T04:12:07;4.90;99.90
5881;DHT22;2966;52.598;10.928;2023-02-01T04:14:34;4.80;99.90
5881;DHT22;2966;52.598;10.928;2023-02-01T04:17:03;4.80;99.90
5881;DHT22;2966;52.598;10.928;2023-02-01T04:19:30;4.90;99.90
5881;DHT22;2966;52.598;10.928;2023-02-01T04:21:56;4.90;99.90
5881;DHT22;2966;52.598;10.928;2023-02-01T04:24:23;4.80;99.90
5881;DHT22;2966;52.598;10.928;2023-02-01T04:26:51;4.80;99.90
5881;DHT22;2966;52.598;10.928;2023-02-01T04:29:18;4.80;99.90
5881;DHT22;2966;52.598;10.928;2023-02-01T04:31:45;4.90;99.90
5881;DHT22;2966;52.598;10.928;2023-02-01T04:34:11;4.90;99.90
5881;DHT22;2966;52.598;10.928;2023-02-01T04:36:38;5.00;99.90
5881;DHT22;2966;52.598;10.928;2023-02-01T04:39:05;5.00;99.90
5881;DHT22;2966;52.598;10.928;2023-02-01T04:41:31;5.00;99.90
5881;DHT22;2966;52.598;10.928;2023-02-01T04:43:59;5.00;99.90
5881;DHT22;2966;52.598;10.928;2023-02-01T04:46:26;5.00;99.90
5881;DHT22;2966;52.598;10.928;2023-02-01T04:48:53;5.00;99.90
5881;DHT22;2966;52.598;10.928;2023-02-01T04:51:19;5.00;99.90
5881;DHT22;2966;52.598;10.928;2023-02-01T04:53:47;5.00;99.90
5881;DHT22;2966;52.598;10.928;2023-02-01T04:56:13;5.00;99.90
5881;DHT22;2966;52.598;10.928;2023-02-01T04:58:40;5.00;99.90
5881;DHT22;2966;52.598;10.928;2023-02-01T05:01:08;5.00;99.90
5881;DHT22;2966;52.598;10.928;2023-02-01T05:03:35;5.00;99.90
5881;DHT22;2966;52.598;10.928;2023-02-01T05:06:02;4.90;99.90
5881;DHT22;2966;52.598;10.928;2023-02-01T05:08:30;5.00;99.90
5881;DHT22;2966;52.598;10.928;2023-02-01T05:10:57;5.00;99.90
5881;DHT22;2966;52.598;10.928;2023-02-01T05:13:28;4.90;99.90
5881;DHT22;2966;52.598;10.928;2023-02-01T05:16:14;5.00;99.90
5881;DHT22;2966;52.598;10.928;2023-02-01T05:18:41;4.90;99.90
5881;DHT22;2966;52.598;10.928;2023-02-01T05:21:07;4.90;99.90
5881;DHT22;2966;52.598;10.928;2023-02-01T05:23:34;4.90;99.90
5881;DHT22;2966;52.598;10.928;2023-02-01T05:26:21;4.90;99.90
5881;DHT22;2966;52.598;10.928;2023-02-01T05:28:48;4.80;99.90
5881;DHT22;2966;52.598;10.928;2023-02-01T05:31:16;4.80;99.90
5881;DHT22;2966;52.598;10.928;2023-02-01T05:33:43;4.80;99.90
5881;DHT22;2966;52.598;10.928;2023-02-01T05:36:10;4.70;99.90
5881;DHT22;2966;52.598;10.928;2023-02-01T05:38:36;4.60;99.90
5881;DHT22;2966;52.598;10.928;2023-02-01T05:41:03;4.60;99.90
5881;DHT22;2966;52.598;10.928;2023-02-01T05:43:30;4.50;99.90
5881;DHT22;2966;52.598;10.928;2023-02-01T05:45:57;4.50;99.90
5881;DHT22;2966;52.598;10.928;2023-02-01T05:48:25;4.50;99.90
5881;DHT22;2966;52.598;10.928;2023-02-01T05:50:51;4.50;99.90
5881;DHT22;2966;52.598;10.928;2023-02-01T05:53:18;4.40;99.90
5881;DHT22;2966;52.598;10.928;2023-02-01T05:55:45;4.30;99.90
5881;DHT22;2966;52.598;10.928;2023-02-01T05:58:18;4.20;99.90
5881;DHT22;2966;52.598;10.928;2023-02-01T06:00:44;4.10;99.90
5881;DHT22;2966;52.598;10.928;2023-02-01T06:03:11;4.10;99.90
5881;DHT22;2966;52.598;10.928;2023-02-01T06:05:39;4.00;99.90
5881;DHT22;2966;52.598;10.928;2023-02-01T06:08:06;4.00;99.90
5881;DHT22;2966;52.598;10.928;2023-02-01T06:10:34;3.90;99.90
5881;DHT22;2966;52.598;10.928;2023-02-01T06:13:03;3.90;99.90
5881;DHT22;2966;52.598;10.928;2023-02-01T06:15:30;3.90;99.90
5881;DHT22;2966;52.598;10.928;2023-02-01T06:18:01;3.90;99.90
5881;DHT22;2966;52.598;10.928;2023-02-01T06:20:55;3.80;99.90
5881;DHT22;2966;52.598;10.928;2023-02-01T06:23:23;3.80;99.90
5881;DHT22;2966;52.598;10.928;2023-02-01T06:25:51;3.90;99.90
5881;DHT22;2966;52.598;10.928;2023-02-01T06:28:17;3.90;99.90
5881;DHT22;2966;52.598;10.928;2023-02-01T06:30:44;3.90;99.90
5881;DHT22;2966;52.598;10.928;2023-02-01T06:33:11;3.90;99.90
5881;DHT22;2966;52.598;10.928;2023-02-01T06:35:40;4.00;99.90
5881;DHT22;2966;52.598;10.928;2023-02-01T06:38:08;4.00;99.90
5881;DHT22;2966;52.598;10.928;2023-02-01T06:40:35;4.00;99.90
5881;DHT22;2966;52.598;10.928;2023-02-01T06:43:02;4.10;99.90
5881;DHT22;2966;52.598;10.928;2023-02-01T06:45:29;4.10;99.90
5881;DHT22;2966;52.598;10.928;2023-02-01T06:47:55;4.10;99.90
5881;DHT22;2966;52.598;10.928;2023-02-01T06:50:22;4.10;99.90
5881;DHT22;2966;52.598;10.928;2023-02-01T06:52:56;4.20;99.90
5881;DHT22;2966;52.598;10.928;2023-02-01T06:55:24;4.30;99.90
5881;DHT22;2966;52.598;10.928;2023-02-01T06:57:53;4.30;99.90
5881;DHT22;2966;52.598;10.928;2023-02-01T07:00:21;4.20;99.90
5881;DHT22;2966;52.598;10.928;2023-02-01T07:02:48;4.20;99.90
5881;DHT22;2966;52.598;10.928;2023-02-01T07:05:15;4.20;99.90
5881;DHT22;2966;52.598;10.928;2023-02-01T07:07:41;4.30;99.90
5881;DHT22;2966;52.598;10.928;2023-02-01T07:10:09;4.30;99.90
5881;DHT22;2966;52.598;10.928;2023-02-01T07:12:37;4.30;99.90
5881;DHT22;2966;52.598;10.928;2023-02-01T07:15:08;4.30;99.90
5881;DHT22;2966;52.598;10.928;2023-02-01T07:17:34;4.30;99.90
5881;DHT22;2966;52.598;10.928;2023-02-01T07:20:01;4.30;99.90
5881;DHT22;2966;52.598;10.928;2023-02-01T07:22:28;4.30;99.90
5881;DHT22;2966;52.598;10.928;2023-02-01T07:24:58;4.30;99.90
5881;DHT22;2966;52.598;10.928;2023-02-01T07:27:27;4.40;99.90
5881;DHT22;2966;52.598;10.928;2023-02-01T07:29:55;4.40;99.90
5881;DHT22;2966;52.598;10.928;2023-02-01T07:32:25;4.30;99.90
5881;DHT22;2966;52.598;10.928;2023-02-01T07:34:52;4.00;99.90
5881;DHT22;2966;52.598;10.928;2023-02-01T07:37:18;3.90;99.90
5881;DHT22;2966;52.598;10.928;2023-02-01T07:39:47;3.80;99.90
5881;DHT22;2966;52.598;10.928;2023-02-01T07:42:13;3.70;99.90
5881;DHT22;2966;52.598;10.928;2023-02-01T07:44:40;3.70;99.90
5881;DHT22;2966;52.598;10.928;2023-02-01T07:47:08;3.70;99.90
5881;DHT22;2966;52.598;10.928;2023-02-01T07:49:40;3.70;99.90
5881;DHT22;2966;52.598;10.928;2023-02-01T07:52:06;3.70;99.90
5881;DHT22;2966;52.598;10.928;2023-02-01T07:54:36;3.70;99.90
5881;DHT22;2966;52.598;10.928;2023-02-01T07:57:03;3.70;99.90
5881;DHT22;2966;52.598;10.928;2023-02-01T07:59:32;3.70;99.90
5881;DHT22;2966;52.598;10.928;2023-02-01T08:01:59;3.80;99.90
5881;DHT22;2966;52.598;10.928;2023-02-01T08:04:26;3.80;99.90
5881;DHT22;2966;52.598;10.928;2023-02-01T08:06:56;3.70;99.90
5881;DHT22;2966;52.598;10.928;2023-02-01T08:09:22;3.70;99.90
5881;DHT22;2966;52.598;10.928;2023-02-01T08:11:49;3.80;99.90
5881;DHT22;2966;52.598;10.928;2023-02-01T08:14:16;3.50;99.90
5881;DHT22;2966;52.598;10.928;2023-02-01T08:16:42;3.20;99.90
5881;DHT22;2966;52.598;10.928;2023-02-01T08:19:09;3.20;99.90
5881;DHT22;2966;52.598;10.928;2023-02-01T08:21:40;3.40;99.90
5881;DHT22;2966;52.598;10.928;2023-02-01T08:24:09;3.70;99.90
5881;DHT22;2966;52.598;10.928;2023-02-01T08:26:41;3.80;99.90
5881;DHT22;2966;52.598;10.928;2023-02-01T08:29:10;3.80;99.90
5881;DHT22;2966;52.598;10.928;2023-02-01T08:31:38;3.80;99.90
5881;DHT22;2966;52.598;10.928;2023-02-01T08:34:05;3.80;99.90
5881;DHT22;2966;52.598;10.928;2023-02-01T08:36:33;3.90;99.90
5881;DHT22;2966;52.598;10.928;2023-02-01T08:39:02;3.90;99.90
5881;DHT22;2966;52.598;10.928;2023-02-01T08:41:31;3.90;99.90
5881;DHT22;2966;52.598;10.928;2023-02-01T08:43:58;4.00;99.90
5881;DHT22;2966;52.598;10.928;2023-02-01T08:46:24;4.10;99.90
5881;DHT22;2966;52.598;10.928;2023-02-01T08:48:54;4.20;99.90
5881;DHT22;2966;52.598;10.928;2023-02-01T08:51:22;4.30;99.90
5881;DHT22;2966;52.598;10.928;2023-02-01T08:53:50;4.30;99.90
5881;DHT22;2966;52.598;10.928;2023-02-01T08:56:19;4.30;99.90
5881;DHT22;2966;52.598;10.928;2023-02-01T08:58:46;4.40;99.90
5881;DHT22;2966;52.598;10.928;2023-02-01T09:01:16;4.40;99.90
5881;DHT22;2966;52.598;10.928;2023-02-01T09:03:43;4.40;99.90
5881;DHT22;2966;52.598;10.928;2023-02-01T09:06:12;4.40;99.90
5881;DHT22;2966;52.598;10.928;2023-02-01T09:08:40;4.50;99.90
5881;DHT22;2966;52.598;10.928;2023-02-01T09:11:10;4.40;99.90
5881;DHT22;2966;52.598;10.928;2023-02-01T09:13:38;4.40;99.90
5881;DHT22;2966;52.598;10.928;2023-02-01T09:16:05;4.40;99.90
5881;DHT22;2966;52.598;10.928;2023-02-01T09:18:32;4.50;99.90
5881;DHT22;2966;52.598;10.928;2023-02-01T09:20:59;4.50;99.90
5881;DHT22;2966;52.598;10.928;2023-02-01T09:23:25;4.60;99.90
5881;DHT22;2966;52.598;10.928;2023-02-01T09:25:52;4.60;99.90
5881;DHT22;2966;52.598;10.928;2023-02-01T09:28:19;4.60;99.90
5881;DHT22;2966;52.598;10.928;2023-02-01T09:30:47;4.60;99.90
5881;DHT22;2966;52.598;10.928;2023-02-01T09:33:14;4.70;99.90
5881;DHT22;2966;52.598;10.928;2023-02-01T09:35:43;4.70;99.90
5881;DHT22;2966;52.598;10.928;2023-02-01T09:38:09;4.80;99.90
5881;DHT22;2966;52.598;10.928;2023-02-01T09:40:39;4.80;99.90
5881;DHT22;2966;52.598;10.928;2023-02-01T09:43:15;4.90;99.90
5881;DHT22;2966;52.598;10.928;2023-02-01T09:45:51;4.80;99.90
5881;DHT22;2966;52.598;10.928;2023-02-01T09:48:26;4.90;99.90
5881;DHT22;2966;52.598;10.928;2023-02-01T09:50:58;5.00;99.90
5881;DHT22;2966;52.598;10.928;2023-02-01T09:53:32;5.00;99.90
5881;DHT22;2966;52.598;10.928;2023-02-01T09:56:02;5.00;99.90
5881;DHT22;2966;52.598;10.928;2023-02-01T09:58:35;5.00;99.90
5881;DHT22;2966;52.598;10.928;2023-02-01T10:01:10;5.00;99.90
5881;DHT22;2966;52.598;10.928;2023-02-01T10:03:41;5.10;99.90
5881;DHT22;2966;52.598;10.928;2023-02-01T10:06:24;5.20;99.90
5881;DHT22;2966;52.598;10.928;2023-02-01T10:09:09;5.20;99.90
5881;DHT22;2966;52.598;10.928;2023-02-01T10:11:45;5.30;99.90
5881;DHT22;2966;52.598;10.928;2023-02-01T10:14:35;5.30;99.90
5881;DHT22;2966;52.598;10.928;2023-02-01T10:17:14;5.40;99.90
5881;DHT22;2966;52.598;10.928;2023-02-01T10:19:51;5.30;99.90
5881;DHT22;2966;52.598;10.928;2023-02-01T10:22:30;5.30;99.90
5881;DHT22;2966;52.598;10.928;2023-02-01T10:25:06;5.20;99.90
5881;DHT22;2966;52.598;10.928;2023-02-01T10:27:38;5.20;99.90
5881;DHT22;2966;52.598;10.928;2023-02-01T10:30:16;5.20;99.90
5881;DHT22;2966;52.598;10.928;2023-02-01T10:32:45;5.10;99.90
5881;DHT22;2966;52.598;10.928;2023-02-01T10:35:16;5.10;99.90
5881;DHT22;2966;52.598;10.928;2023-02-01T10:37:44;5.10;99.90
5881;DHT22;2966;52.598;10.928;2023-02-01T10:40:20;5.20;99.90
5881;DHT22;2966;52.598;10.928;2023-02-01T10:42:48;5.30;99.90
5881;DHT22;2966;52.598;10.928;2023-02-01T10:45:18;5.30;99.90
5881;DHT22;2966;52.598;10.928;2023-02-01T10:47:49;5.40;99.90
5881;DHT22;2966;52.598;10.928;2023-02-01T10:50:21;5.40;99.90
5881;DHT22;2966;52.598;10.928;2023-02-01T10:52:54;5.40;99.90
5881;DHT22;2966;52.598;10.928;2023-02-01T10:55:32;5.40;99.90
5881;DHT22;2966;52.598;10.928;2023-02-01T10:58:00;5.50;99.90
5881;DHT22;2966;52.598;10.928;2023-02-01T11:00:28;5.40;99.90
5881;DHT22;2966;52.598;10.928;2023-02-01T11:03:19;5.40;99.90
5881;DHT22;2966;52.598;10.928;2023-02-01T11:05:48;5.40;99.90
5881;DHT22;2966;52.598;10.928;2023-02-01T11:08:16;5.50;99.90
5881;DHT22;2966;52.598;10.928;2023-02-01T11:10:44;5.50;99.90
5881;DHT22;2966;52.598;10.928;2023-02-01T11:13:14;5.60;99.90
5881;DHT22;2966;52.598;10.928;2023-02-01T11:15:43;5.70;99.90
5881;DHT22;2966;52.598;10.928;2023-02-01T11:18:19;5.90;99.90
5881;DHT22;2966;52.598;10.928;2023-02-01T11:20:47;6.00;99.90
5881;DHT22;2966;52.598;10.928;2023-02-01T11:23:19;6.00;99.90
5881;DHT22;2966;52.598;10.928;2023-02-01T11:25:52;6.20;99.90
5881;DHT22;2966;52.598;10.928;2023-02-01T11:28:21;6.20;99.90
5881;DHT22;2966;52.598;10.928;2023-02-01T11:30:54;6.20;99.90
5881;DHT22;2966;52.598;10.928;2023-02-01T11:33:28;6.30;99.90
5881;DHT22;2966;52.598;10.928;2023-02-01T11:35:57;6.30;99.90
5881;DHT22;2966;52.598;10.928;2023-02-01T11:38:31;6.30;99.90
5881;DHT22;2966;52.598;10.928;2023-02-01T11:41:12;6.40;99.90
5881;DHT22;2966;52.598;10.928;2023-02-01T11:43:55;6.30;99.90
5881;DHT22;2966;52.598;10.928;2023-02-01T11:46:24;6.40;99.90
5881;DHT22;2966;52.598;10.928;2023-02-01T11:48:54;6.40;99.90
5881;DHT22;2966;52.598;10.928;2023-02-01T11:51:32;6.30;99.90
5881;DHT22;2966;52.598;10.928;2023-02-01T11:54:19;6.30;99.90
5881;DHT22;2966;52.598;10.928;2023-02-01T11:56:57;6.40;99.90
5881;DHT22;2966;52.598;10.928;2023-02-01T11:59:38;6.40;99.90
5881;DHT22;2966;52.598;10.928;2023-02-01T12:02:32;6.30;99.90
5881;DHT22;2966;52.598;10.928;2023-02-01T12:05:18;6.40;99.90
5881;DHT22;2966;52.598;10.928;2023-02-01T12:10:51;6.40;99.90
5881;DHT22;2966;52.598;10.928;2023-02-01T12:13:30;6.40;99.90
5881;DHT22;2966;52.598;10.928;2023-02-01T12:16:11;6.30;99.90
5881;DHT22;2966;52.598;10.928;2023-02-01T12:19:04;6.30;99.90
5881;DHT22;2966;52.598;10.928;2023-02-01T12:21:52;6.30;99.90
5881;DHT22;2966;52.598;10.928;2023-02-01T12:24:48;6.30;99.90
5881;DHT22;2966;52.598;10.928;2023-02-01T12:30:38;6.30;99.90
5881;DHT22;2966;52.598;10.928;2023-02-01T12:33:11;6.20;99.90
5881;DHT22;2966;52.598;10.928;2023-02-01T12:35:50;6.20;99.90
5881;DHT22;2966;52.598;10.928;2023-02-01T12:38:31;6.10;99.90
5881;DHT22;2966;52.598;10.928;2023-02-01T12:41:31;6.20;99.90
5881;DHT22;2966;52.598;10.928;2023-02-01T12:44:01;6.10;99.90
5881;DHT22;2966;52.598;10.928;2023-02-01T12:46:35;6.00;99.90
5881;DHT22;2966;52.598;10.928;2023-02-01T12:49:06;5.80;99.90
5881;DHT22;2966;52.598;10.928;2023-02-01T12:51:38;5.60;99.90
5881;DHT22;2966;52.598;10.928;2023-02-01T12:54:13;5.50;99.90
5881;DHT22;2966;52.598;10.928;2023-02-01T12:56:46;5.20;99.90
5881;DHT22;2966;52.598;10.928;2023-02-01T12:59:19;5.00;99.90
5881;DHT22;2966;52.598;10.928;2023-02-01T13:01:52;4.80;99.90
5881;DHT22;2966;52.598;10.928;2023-02-01T13:04:26;4.70;99.90
5881;DHT22;2966;52.598;10.928;2023-02-01T13:07:00;4.60;99.90
5881;DHT22;2966;52.598;10.928;2023-02-01T13:09:37;4.40;99.90
5881;DHT22;2966;52.598;10.928;2023-02-01T13:12:11;4.40;99.90
5881;DHT22;2966;52.598;10.928;2023-02-01T13:14:42;4.30;99.90
5881;DHT22;2966;52.598;10.928;2023-02-01T13:17:15;4.30;99.90
5881;DHT22;2966;52.598;10.928;2023-02-01T13:19:47;4.30;99.90
5881;DHT22;2966;52.598;10.928;2023-02-01T13:22:19;4.30;99.90
5881;DHT22;2966;52.598;10.928;2023-02-01T13:24:51;4.30;99.90
5881;DHT22;2966;52.598;10.928;2023-02-01T13:27:18;4.30;99.90
5881;DHT22;2966;52.598;10.928;2023-02-01T13:29:53;4.30;99.90
5881;DHT22;2966;52.598;10.928;2023-02-01T13:32:48;4.30;99.90
5881;DHT22;2966;52.598;10.928;2023-02-01T13:38:37;4.40;99.90
5881;DHT22;2966;52.598;10.928;2023-02-01T13:41:20;4.40;99.90
5881;DHT22;2966;52.598;10.928;2023-02-01T13:43:54;4.40;99.90
5881;DHT22;2966;52.598;10.928;2023-02-01T13:46:22;4.40;99.90
5881;DHT22;2966;52.598;10.928;2023-02-01T13:48:50;4.30;99.90
5881;DHT22;2966;52.598;10.928;2023-02-01T13:51:32;4.30;99.90
5881;DHT22;2966;52.598;10.928;2023-02-01T13:54:02;4.30;99.90
5881;DHT22;2966;52.598;10.928;2023-02-01T13:56:42;4.30;99.90
5881;DHT22;2966;52.598;10.928;2023-02-01T14:02:46;4.30;99.90
5881;DHT22;2966;52.598;10.928;2023-02-01T14:08:23;4.50;99.90
5881;DHT22;2966;52.598;10.928;2023-02-01T14:10:52;4.60;99.90
5881;DHT22;2966;52.598;10.928;2023-02-01T14:13:27;4.60;99.90
5881;DHT22;2966;52.598;10.928;2023-02-01T14:16:14;4.50;99.90
5881;DHT22;2966;52.598;10.928;2023-02-01T14:19:00;4.40;99.90
5881;DHT22;2966;52.598;10.928;2023-02-01T14:21:30;4.40;99.90
5881;DHT22;2966;52.598;10.928;2023-02-01T14:24:00;4.30;99.90
5881;DHT22;2966;52.598;10.928;2023-02-01T14:26:41;4.30;99.90
5881;DHT22;2966;52.598;10.928;2023-02-01T14:29:31;4.30;99.90
5881;DHT22;2966;52.598;10.928;2023-02-01T14:32:04;4.20;99.90
5881;DHT22;2966;52.598;10.928;2023-02-01T14:34:48;4.20;99.90
5881;DHT22;2966;52.598;10.928;2023-02-01T14:37:26;4.10;99.90
5881;DHT22;2966;52.598;10.928;2023-02-01T14:39:56;4.10;99.90
5881;DHT22;2966;52.598;10.928;2023-02-01T14:42:28;4.10;99.90
5881;DHT22;2966;52.598;10.928;2023-02-01T14:51:03;4.00;99.90
5881;DHT22;2966;52.598;10.928;2023-02-01T14:53:33;3.90;99.90
5881;DHT22;2966;52.598;10.928;2023-02-01T14:56:06;3.90;99.90
5881;DHT22;2966;52.598;10.928;2023-02-01T14:58:41;3.90;99.90
5881;DHT22;2966;52.598;10.928;2023-02-01T15:01:17;3.90;99.90
5881;DHT22;2966;52.598;10.928;2023-02-01T15:03:50;3.80;99.90
5881;DHT22;2966;52.598;10.928;2023-02-01T15:06:30;3.90;99.90
5881;DHT22;2966;52.598;10.928;2023-02-01T15:09:01;3.90;99.90
5881;DHT22;2966;52.598;10.928;2023-02-01T15:11:28;3.90;99.90
5881;DHT22;2966;52.598;10.928;2023-02-01T15:13:55;4.00;99.90
5881;DHT22;2966;52.598;10.928;2023-02-01T15:16:23;4.00;99.90
5881;DHT22;2966;52.598;10.928;2023-02-01T15:19:10;4.00;99.90
5881;DHT22;2966;52.598;10.928;2023-02-01T15:21:46;4.00;99.90
5881;DHT22;2966;52.598;10.928;2023-02-01T15:24:14;4.00;99.90
5881;DHT22;2966;52.598;10.928;2023-02-01T15:26:45;4.00;99.90
5881;DHT22;2966;52.598;10.928;2023-02-01T15:29:14;4.00;99.90
5881;DHT22;2966;52.598;10.928;2023-02-01T15:31:43;4.10;99.90
5881;DHT22;2966;52.598;10.928;2023-02-01T15:34:10;4.00;99.90
5881;DHT22;2966;52.598;10.928;2023-02-01T15:36:37;4.00;99.90
5881;DHT22;2966;52.598;10.928;2023-02-01T15:39:20;4.10;99.90
5881;DHT22;2966;52.598;10.928;2023-02-01T15:41:51;4.10;99.90
5881;DHT22;2966;52.598;10.928;2023-02-01T15:44:28;4.10;99.90
5881;DHT22;2966;52.598;10.928;2023-02-01T15:46:55;4.10;99.90
5881;DHT22;2966;52.598;10.928;2023-02-01T15:49:27;4.10;99.90
5881;DHT22;2966;52.598;10.928;2023-02-01T15:51:55;4.10;99.90
5881;DHT22;2966;52.598;10.928;2023-02-01T15:54:30;4.20;99.90
5881;DHT22;2966;52.598;10.928;2023-02-01T15:57:00;4.10;99.90
5881;DHT22;2966;52.598;10.928;2023-02-01T15:59:32;4.20;99.90
5881;DHT22;2966;52.598;10.928;2023-02-01T16:02:02;4.10;99.90
5881;DHT22;2966;52.598;10.928;2023-02-01T16:04:29;4.10;99.90
5881;DHT22;2966;52.598;10.928;2023-02-01T16:06:58;4.10;99.90
5881;DHT22;2966;52.598;10.928;2023-02-01T16:09:37;4.10;99.90
5881;DHT22;2966;52.598;10.928;2023-02-01T16:12:23;4.10;99.90
5881;DHT22;2966;52.598;10.928;2023-02-01T16:14:52;4.10;99.90
5881;DHT22;2966;52.598;10.928;2023-02-01T16:17:22;4.10;99.90
5881;DHT22;2966;52.598;10.928;2023-02-01T16:19:48;4.10;99.90
5881;DHT22;2966;52.598;10.928;2023-02-01T16:22:16;4.00;99.90
5881;DHT22;2966;52.598;10.928;2023-02-01T16:24:44;4.00;99.90
5881;DHT22;2966;52.598;10.928;2023-02-01T16:27:11;4.00;99.90
5881;DHT22;2966;52.598;10.928;2023-02-01T16:29:37;4.00;99.90
5881;DHT22;2966;52.598;10.928;2023-02-01T16:32:04;4.00;99.90
5881;DHT22;2966;52.598;10.928;2023-02-01T16:34:31;3.90;99.90
5881;DHT22;2966;52.598;10.928;2023-02-01T16:37:03;3.80;99.90
5881;DHT22;2966;52.598;10.928;2023-02-01T16:39:29;3.80;99.90
5881;DHT22;2966;52.598;10.928;2023-02-01T16:42:00;3.80;99.90
5881;DHT22;2966;52.598;10.928;2023-02-01T16:44:26;3.70;99.90
5881;DHT22;2966;52.598;10.928;2023-02-01T16:46:53;3.70;99.90
5881;DHT22;2966;52.598;10.928;2023-02-01T16:49:21;3.60;99.90
5881;DHT22;2966;52.598;10.928;2023-02-01T16:51:50;3.60;99.90